sensor_id;sensor_type;location;lat;lon;timestamp;temperature;humidity
77582;DHT22;66726;52.388;9.986;2023-04-15T00:00:58;8.50;99.90
77582;DHT22;66726;52.388;9.986;2023-04-15T00:03:30;8.50;99.90
77582;DHT22;66726;52.388;9.986;2023-04-15T00:06:04;8.50;99.90
77582;DHT22;66726;52.388;9.986;2023-04-15T00:08:36;8.40;99.90
77582;DHT22;66726;52.388;9.986;2023-04-15T00:11:08;8.40;99.90
77582;DHT22;66726;52.388;9.986;2023-04-15T00:13:40;8.30;99.90
77582;DHT22;66726;52.388;9.986;2023-04-15T00:16:13;8.30;99.90
77582;DHT22;66726;52.388;9.986;2023-04-15T00:18:45;8.40;99.90
77582;DHT22;66726;52.388;9.986;2023-04-15T00:21:18;8.40;99.90
77582;DHT22;66726;52.388;9.986;2023-04-15T00:23:49;8.40;99.90
77582;DHT22;66726;52.388;9.986;2023-04-15T00:26:21;8.30;99.90
77582;DHT22;66726;52.388;9.986;2023-04-15T00:28:53;8.30;99.90
77582;DHT22;66726;52.388;9.986;2023-04-15T00:31:26;8.30;99.90
77582;DHT22;66726;52.388;9.986;2023-04-15T00:33:58;8.30;99.90
77582;DHT22;66726;52.388;9.986;2023-04-15T00:36:33;8.30;99.90
77582;DHT22;66726;52.388;9.986;2023-04-15T00:39:04;8.30;99.90
77582;DHT22;66726;52.388;9.986;2023-04-15T00:41:36;8.20;99.90
77582;DHT22;66726;52.388;9.986;2023-04-15T00:44:08;8.30;99.90
77582;DHT22;66726;52.388;9.986;2023-04-15T00:46:40;8.10;99.90
77582;DHT22;66726;52.388;9.986;2023-04-15T00:49:12;8.10;99.90
77582;DHT22;66726;52.388;9.986;2023-04-15T00:51:47;8.20;99.90
77582;DHT22;66726;52.388;9.986;2023-04-15T00:54:18;8.10;99.90
77582;DHT22;66726;52.388;9.986;2023-04-15T00:56:50;8.10;99.90
77582;DHT22;66726;52.388;9.986;2023-04-15T00:59:22;8.20;99.90
77582;DHT22;66726;52.388;9.986;2023-04-15T01:01:54;8.20;99.90
77582;DHT22;66726;52.388;9.986;2023-04-15T01:04:26;8.10;99.90
77582;DHT22;66726;52.388;9.986;2023-04-15T01:07:01;8.10;99.90
77582;DHT22;66726;52.388;9.986;2023-04-15T01:12:04;8.10;99.90
77582;DHT22;66726;52.388;9.986;2023-04-15T01:14:38;8.10;99.90
77582;DHT22;66726;52.388;9.986;2023-04-15T01:17:10;8.10;99.90
77582;DHT22;66726;52.388;9.986;2023-04-15T01:19:42;8.10;99.90
77582;DHT22;66726;52.388;9.986;2023-04-15T01:22:15;8.00;99.90
77582;DHT22;66726;52.388;9.986;2023-04-15T01:24:53;8.10;99.90
77582;DHT22;66726;52.388;9.986;2023-04-15T01:27:33;8.10;99.90
77582;DHT22;66726;52.388;9.986;2023-04-15T01:30:09;8.00;99.90
77582;DHT22;66726;52.388;9.986;2023-04-15T01:32:42;8.00;99.90
77582;DHT22;66726;52.388;9.986;2023-04-15T01:35:14;8.00;99.90
77582;DHT22;66726;52.388;9.986;2023-04-15T01:37:46;8.00;99.90
77582;DHT22;66726;52.388;9.986;2023-04-15T01:40:17;8.10;99.90
77582;DHT22;66726;52.388;9.986;2023-04-15T01:42:51;8.10;99.90
77582;DHT22;66726;52.388;9.986;2023-04-15T01:45:23;8.00;99.90
77582;DHT22;66726;52.388;9.986;2023-04-15T01:47:55;8.00;99.90
77582;DHT22;66726;52.388;9.986;2023-04-15T01:50:27;8.00;99.90
77582;DHT22;66726;52.388;9.986;2023-04-15T01:52:59;8.00;99.90
77582;DHT22;66726;52.388;9.986;2023-04-15T01:55:31;8.00;99.90
77582;DHT22;66726;52.388;9.986;2023-04-15T01:58:04;8.00;99.90
77582;DHT22;66726;52.388;9.986;2023-04-15T02:00:36;7.90;99.90
77582;DHT22;66726;52.388;9.986;2023-04-15T02:03:08;7.90;99.90
77582;DHT22;66726;52.388;9.986;2023-04-15T02:05:42;7.90;99.90
77582;DHT22;66726;52.388;9.986;2023-04-15T02:08:14;7.90;99.90
77582;DHT22;66726;52.388;9.986;2023-04-15T02:10:46;7.90;99.90
77582;DHT22;66726;52.388;9.986;2023-04-15T02:13:19;7.90;99.90
77582;DHT22;66726;52.388;9.986;2023-04-15T02:15:51;7.90;99.90
77582;DHT22;66726;52.388;9.986;2023-04-15T02:18:23;7.90;99.90
77582;DHT22;66726;52.388;9.986;2023-04-15T02:20:55;7.90;99.90
77582;DHT22;66726;52.388;9.986;2023-04-15T02:23:27;7.80;99.90
77582;DHT22;66726;52.388;9.986;2023-04-15T02:25:59;7.90;99.90
77582;DHT22;66726;52.388;9.986;2023-04-15T02:28:32;7.90;99.90
77582;DHT22;66726;52.388;9.986;2023-04-15T02:31:06;7.90;99.90
77582;DHT22;66726;52.388;9.986;2023-04-15T02:33:38;7.80;99.90
77582;DHT22;66726;52.388;9.986;2023-04-15T02:36:10;7.90;99.90
77582;DHT22;66726;52.388;9.986;2023-04-15T02:38:42;7.80;99.90
77582;DHT22;66726;52.388;9.986;2023-04-15T02:41:14;7.90;99.90
77582;DHT22;66726;52.388;9.986;2023-04-15T02:43:48;7.90;99.90
77582;DHT22;66726;52.388;9.986;2023-04-15T02:46:20;7.90;99.90
77582;DHT22;66726;52.388;9.986;2023-04-15T02:48:51;7.90;99.90
77582;DHT22;66726;52.388;9.986;2023-04-15T02:51:23;7.90;99.90
77582;DHT22;66726;52.388;9.986;2023-04-15T02:53:59;7.90;99.90
77582;DHT22;66726;52.388;9.986;2023-04-15T02:56:30;7.80;99.90
77582;DHT22;66726;52.388;9.986;2023-04-15T02:59:04;7.90;99.90
77582;DHT22;66726;52.388;9.986;2023-04-15T03:01:36;7.80;99.90
77582;DHT22;66726;52.388;9.986;2023-04-15T03:04:08;7.80;99.90
77582;DHT22;66726;52.388;9.986;2023-04-15T03:06:41;7.80;99.90
77582;DHT22;66726;52.388;9.986;2023-04-15T03:09:12;7.80;99.90
77582;DHT22;66726;52.388;9.986;2023-04-15T03:11:44;7.90;99.90
77582;DHT22;66726;52.388;9.986;2023-04-15T03:14:18;7.80;99.90
77582;DHT22;66726;52.388;9.986;2023-04-15T03:16:50;7.80;99.90
77582;DHT22;66726;52.388;9.986;2023-04-15T03:19:22;7.80;99.90
77582;DHT22;66726;52.388;9.986;2023-04-15T03:21:54;7.80;99.90
77582;DHT22;66726;52.388;9.986;2023-04-15T03:24:27;7.80;99.90
77582;DHT22;66726;52.388;9.986;2023-04-15T03:26:59;7.80;99.90
77582;DHT22;66726;52.388;9.986;2023-04-15T03:29:32;7.80;99.90
77582;DHT22;66726;52.388;9.986;2023-04-15T03:32:03;7.80;99.90
77582;DHT22;66726;52.388;9.986;2023-04-15T03:34:35;7.70;99.90
77582;DHT22;66726;52.388;9.986;2023-04-15T03:37:07;7.80;99.90
77582;DHT22;66726;52.388;9.986;2023-04-15T03:39:39;7.70;99.90
77582;DHT22;66726;52.388;9.986;2023-04-15T03:42:11;7.80;99.90
77582;DHT22;66726;52.388;9.986;2023-04-15T03:44:44;7.70;99.90
77582;DHT22;66726;52.388;9.986;2023-04-15T03:47:16;7.70;99.90
77582;DHT22;66726;52.388;9.986;2023-04-15T03:49:48;7.80;99.90
77582;DHT22;66726;52.388;9.986;2023-04-15T03:52:20;7.80;99.90
77582;DHT22;66726;52.388;9.986;2023-04-15T03:54:52;7.70;99.90
77582;DHT22;66726;52.388;9.986;2023-04-15T03:57:23;7.70;99.90
77582;DHT22;66726;52.388;9.986;2023-04-15T03:59:57;7.70;99.90
77582;DHT22;66726;52.388;9.986;2023-04-15T04:02:28;7.70;99.90
77582;DHT22;66726;52.388;9.986;2023-04-15T04:05:00;7.70;99.90
77582;DHT22;66726;52.388;9.986;2023-04-15T04:07:33;7.70;99.90
77582;DHT22;66726;52.388;9.986;2023-04-15T04:10:06;7.60;99.90
77582;DHT22;66726;52.388;9.986;2023-04-15T04:12:39;7.60;99.90
77582;DHT22;66726;52.388;9.986;2023-04-15T04:15:12;7.60;99.90
77582;DHT22;66726;52.388;9.986;2023-04-15T04:17:44;7.60;99.90
77582;DHT22;66726;52.388;9.986;2023-04-15T04:20:16;7.60;99.90
77582;DHT22;66726;52.388;9.986;2023-04-15T04:22:48;7.60;99.90
77582;DHT22;66726;52.388;9.986;2023-04-15T04:25:20;7.50;99.90
77582;DHT22;66726;52.388;9.986;2023-04-15T04:27:52;7.60;99.90
77582;DHT22;66726;52.388;9.986;2023-04-15T04:30:25;7.50;99.90
77582;DHT22;66726;52.388;9.986;2023-04-15T04:32:57;7.60;99.90
77582;DHT22;66726;52.388;9.986;2023-04-15T04:35:29;7.60;99.90
77582;DHT22;66726;52.388;9.986;2023-04-15T04:38:02;7.50;99.90
77582;DHT22;66726;52.388;9.986;2023-04-15T04:40:34;7.50;99.90
77582;DHT22;66726;52.388;9.986;2023-04-15T04:43:06;7.50;99.90
77582;DHT22;66726;52.388;9.986;2023-04-15T04:45:39;7.50;99.90
77582;DHT22;66726;52.388;9.986;2023-04-15T04:48:11;7.40;99.90
77582;DHT22;66726;52.388;9.986;2023-04-15T04:50:43;7.40;99.90
77582;DHT22;66726;52.388;9.986;2023-04-15T04:53:16;7.50;99.90
77582;DHT22;66726;52.388;9.986;2023-04-15T04:55:48;7.50;99.90
77582;DHT22;66726;52.388;9.986;2023-04-15T04:58:19;7.40;99.90
77582;DHT22;66726;52.388;9.986;2023-04-15T05:00:52;7.40;99.90
77582;DHT22;66726;52.388;9.986;2023-04-15T05:03:25;7.40;99.90
77582;DHT22;66726;52.388;9.986;2023-04-15T05:05:57;7.40;99.90
77582;DHT22;66726;52.388;9.986;2023-04-15T05:08:30;7.40;99.90
77582;DHT22;66726;52.388;9.986;2023-04-15T05:11:02;7.50;99.90
77582;DHT22;66726;52.388;9.986;2023-04-15T05:13:34;7.40;99.90
77582;DHT22;66726;52.388;9.986;2023-04-15T05:16:08;7.50;99.90
77582;DHT22;66726;52.388;9.986;2023-04-15T05:18:40;7.40;99.90
77582;DHT22;66726;52.388;9.986;2023-04-15T05:21:12;7.40;99.90
77582;DHT22;66726;52.388;9.986;2023-04-15T05:23:44;7.40;99.90
77582;DHT22;66726;52.388;9.986;2023-04-15T05:26:16;7.40;99.90
77582;DHT22;66726;52.388;9.986;2023-04-15T05:28:48;7.40;99.90
77582;DHT22;66726;52.388;9.986;2023-04-15T05:31:22;7.40;99.90
77582;DHT22;66726;52.388;9.986;2023-04-15T05:33:54;7.40;99.90
77582;DHT22;66726;52.388;9.986;2023-04-15T05:36:26;7.40;99.90
77582;DHT22;66726;52.388;9.986;2023-04-15T05:38:58;7.50;99.90
77582;DHT22;66726;52.388;9.986;2023-04-15T05:41:31;7.40;99.90
77582;DHT22;66726;52.388;9.986;2023-04-15T05:44:03;7.50;99.90
77582;DHT22;66726;52.388;9.986;2023-04-15T05:46:36;7.50;99.90
77582;DHT22;66726;52.388;9.986;2023-04-15T05:49:08;7.50;99.90
77582;DHT22;66726;52.388;9.986;2023-04-15T05:51:40;7.50;99.90
77582;DHT22;66726;52.388;9.986;2023-04-15T05:54:11;7.50;99.90
77582;DHT22;66726;52.388;9.986;2023-04-15T05:56:46;7.50;99.90
77582;DHT22;66726;52.388;9.986;2023-04-15T05:59:18;7.50;99.90
77582;DHT22;66726;52.388;9.986;2023-04-15T06:01:51;7.50;99.90
77582;DHT22;66726;52.388;9.986;2023-04-15T06:04:23;7.50;99.90
77582;DHT22;66726;52.388;9.986;2023-04-15T06:06:55;7.50;99.90
77582;DHT22;66726;52.388;9.986;2023-04-15T06:09:27;7.50;99.90
77582;DHT22;66726;52.388;9.986;2023-04-15T06:12:00;7.40;99.90
77582;DHT22;66726;52.388;9.986;2023-04-15T06:14:31;7.50;99.90
77582;DHT22;66726;52.388;9.986;2023-04-15T06:17:05;7.40;99.90
77582;DHT22;66726;52.388;9.986;2023-04-15T06:19:37;7.50;99.90
77582;DHT22;66726;52.388;9.986;2023-04-15T06:22:08;7.40;99.90
77582;DHT22;66726;52.388;9.986;2023-04-15T06:24:40;7.40;99.90
77582;DHT22;66726;52.388;9.986;2023-04-15T06:27:12;7.50;99.90
77582;DHT22;66726;52.388;9.986;2023-04-15T06:29:44;7.50;99.90
77582;DHT22;66726;52.388;9.986;2023-04-15T06:32:17;7.40;99.90
77582;DHT22;66726;52.388;9.986;2023-04-15T06:34:49;7.40;99.90
77582;DHT22;66726;52.388;9.986;2023-04-15T06:37:21;7.40;99.90
77582;DHT22;66726;52.388;9.986;2023-04-15T06:39:53;7.50;99.90
77582;DHT22;66726;52.388;9.986;2023-04-15T06:42:25;7.40;99.90
77582;DHT22;66726;52.388;9.986;2023-04-15T06:44:56;7.40;99.90
77582;DHT22;66726;52.388;9.986;2023-04-15T06:47:30;7.50;99.90
77582;DHT22;66726;52.388;9.986;2023-04-15T06:50:02;7.40;99.90
77582;DHT22;66726;52.388;9.986;2023-04-15T06:52:34;7.50;99.90
77582;DHT22;66726;52.388;9.986;2023-04-15T06:55:07;7.50;99.90
77582;DHT22;66726;52.388;9.986;2023-04-15T06:57:41;7.50;99.90
77582;DHT22;66726;52.388;9.986;2023-04-15T07:00:14;7.50;99.90
77582;DHT22;66726;52.388;9.986;2023-04-15T07:02:47;7.50;99.90
77582;DHT22;66726;52.388;9.986;2023-04-15T07:05:19;7.50;99.90
77582;DHT22;66726;52.388;9.986;2023-04-15T07:07:51;7.50;99.90
77582;DHT22;66726;52.388;9.986;2023-04-15T07:10:23;7.50;99.90
77582;DHT22;66726;52.388;9.986;2023-04-15T07:12:55;7.50;99.90
77582;DHT22;66726;52.388;9.986;2023-04-15T07:15:26;7.60;99.90
77582;DHT22;66726;52.388;9.986;2023-04-15T07:18:00;7.50;99.90
77582;DHT22;66726;52.388;9.986;2023-04-15T07:20:32;7.60;99.90
77582;DHT22;66726;52.388;9.986;2023-04-15T07:23:03;7.50;99.90
77582;DHT22;66726;52.388;9.986;2023-04-15T07:25:35;7.60;99.90
77582;DHT22;66726;52.388;9.986;2023-04-15T07:28:07;7.60;99.90
77582;DHT22;66726;52.388;9.986;2023-04-15T07:30:39;7.60;99.90
77582;DHT22;66726;52.388;9.986;2023-04-15T07:33:12;7.70;99.90
77582;DHT22;66726;52.388;9.986;2023-04-15T07:35:44;7.70;99.90
77582;DHT22;66726;52.388;9.986;2023-04-15T07:38:16;7.60;99.90
77582;DHT22;66726;52.388;9.986;2023-04-15T07:40:48;7.60;99.90
77582;DHT22;66726;52.388;9.986;2023-04-15T07:43:20;7.60;99.90
77582;DHT22;66726;52.388;9.986;2023-04-15T07:45:52;7.60;99.90
77582;DHT22;66726;52.388;9.986;2023-04-15T07:48:25;7.60;99.90
77582;DHT22;66726;52.388;9.986;2023-04-15T07:50:57;7.60;99.90
77582;DHT22;66726;52.388;9.986;2023-04-15T07:53:31;7.60;99.90
77582;DHT22;66726;52.388;9.986;2023-04-15T07:56:05;7.60;99.90
77582;DHT22;66726;52.388;9.986;2023-04-15T07:58:37;7.60;99.90
77582;DHT22;66726;52.388;9.986;2023-04-15T08:01:11;7.70;99.90
77582;DHT22;66726;52.388;9.986;2023-04-15T08:03:44;7.70;99.90
77582;DHT22;66726;52.388;9.986;2023-04-15T08:06:16;7.60;99.90
77582;DHT22;66726;52.388;9.986;2023-04-15T08:08:48;7.70;99.90
77582;DHT22;66726;52.388;9.986;2023-04-15T08:11:20;7.70;99.90
77582;DHT22;66726;52.388;9.986;2023-04-15T08:13:53;7.70;99.90
77582;DHT22;66726;52.388;9.986;2023-04-15T08:16:26;7.70;99.90
77582;DHT22;66726;52.388;9.986;2023-04-15T08:18:59;7.70;99.90
77582;DHT22;66726;52.388;9.986;2023-04-15T08:21:31;7.70;99.90
77582;DHT22;66726;52.388;9.986;2023-04-15T08:24:04;7.80;99.90
77582;DHT22;66726;52.388;9.986;2023-04-15T08:26:38;7.80;99.90
77582;DHT22;66726;52.388;9.986;2023-04-15T08:29:10;7.70;99.90
77582;DHT22;66726;52.388;9.986;2023-04-15T08:31:42;7.80;99.90
77582;DHT22;66726;52.388;9.986;2023-04-15T08:34:16;7.80;99.90
77582;DHT22;66726;52.388;9.986;2023-04-15T08:36:48;7.80;99.90
77582;DHT22;66726;52.388;9.986;2023-04-15T08:39:21;7.80;99.90
77582;DHT22;66726;52.388;9.986;2023-04-15T08:41:59;7.80;99.90
77582;DHT22;66726;52.388;9.986;2023-04-15T08:44:35;7.80;99.90
77582;DHT22;66726;52.388;9.986;2023-04-15T08:47:11;7.90;99.90
77582;DHT22;66726;52.388;9.986;2023-04-15T08:49:48;7.90;99.90
77582;DHT22;66726;52.388;9.986;2023-04-15T08:52:23;7.80;99.90
77582;DHT22;66726;52.388;9.986;2023-04-15T08:54:57;7.90;99.90
77582;DHT22;66726;52.388;9.986;2023-04-15T08:57:30;7.90;99.90
77582;DHT22;66726;52.388;9.986;2023-04-15T09:00:05;7.90;99.90
77582;DHT22;66726;52.388;9.986;2023-04-15T09:02:39;8.00;99.90
77582;DHT22;66726;52.388;9.986;2023-04-15T09:05:13;8.00;99.90
77582;DHT22;66726;52.388;9.986;2023-04-15T09:07:47;8.00;99.90
77582;DHT22;66726;52.388;9.986;2023-04-15T09:10:21;8.00;99.90
77582;DHT22;66726;52.388;9.986;2023-04-15T09:12:54;8.00;99.90
77582;DHT22;66726;52.388;9.986;2023-04-15T09:15:27;8.00;99.90
77582;DHT22;66726;52.388;9.986;2023-04-15T09:18:01;8.00;99.90
77582;DHT22;66726;52.388;9.986;2023-04-15T09:20:39;8.00;99.90
77582;DHT22;66726;52.388;9.986;2023-04-15T09:23:15;8.10;99.90
77582;DHT22;66726;52.388;9.986;2023-04-15T09:25:49;8.10;99.90
77582;DHT22;66726;52.388;9.986;2023-04-15T09:28:27;8.00;99.90
77582;DHT22;66726;52.388;9.986;2023-04-15T09:31:01;8.10;99.90
77582;DHT22;66726;52.388;9.986;2023-04-15T09:33:34;8.10;99.90
77582;DHT22;66726;52.388;9.986;2023-04-15T09:36:24;8.10;99.90
77582;DHT22;66726;52.388;9.986;2023-04-15T09:38:58;8.10;99.90
77582;DHT22;66726;52.388;9.986;2023-04-15T09:41:31;8.10;99.90
77582;DHT22;66726;52.388;9.986;2023-04-15T09:44:03;8.10;99.90
77582;DHT22;66726;52.388;9.986;2023-04-15T09:46:46;8.10;99.90
77582;DHT22;66726;52.388;9.986;2023-04-15T09:49:18;8.20;99.90
77582;DHT22;66726;52.388;9.986;2023-04-15T09:51:52;8.20;99.90
77582;DHT22;66726;52.388;9.986;2023-04-15T09:54:38;8.20;99.90
77582;DHT22;66726;52.388;9.986;2023-04-15T09:57:11;8.20;99.90
77582;DHT22;66726;52.388;9.986;2023-04-15T09:59:43;8.30;99.90
77582;DHT22;66726;52.388;9.986;2023-04-15T10:02:15;8.30;99.90
77582;DHT22;66726;52.388;9.986;2023-04-15T10:04:49;8.30;99.90
77582;DHT22;66726;52.388;9.986;2023-04-15T10:07:24;8.30;99.90
77582;DHT22;66726;52.388;9.986;2023-04-15T10:09:57;8.30;99.90
77582;DHT22;66726;52.388;9.986;2023-04-15T10:12:32;8.30;99.90
77582;DHT22;66726;52.388;9.986;2023-04-15T10:15:08;8.30;99.90
77582;DHT22;66726;52.388;9.986;2023-04-15T10:17:46;8.40;99.90
77582;DHT22;66726;52.388;9.986;2023-04-15T10:20:20;8.40;99.90
77582;DHT22;66726;52.388;9.986;2023-04-15T10:22:55;8.40;99.90
77582;DHT22;66726;52.388;9.986;2023-04-15T10:25:29;8.40;99.90
77582;DHT22;66726;52.388;9.986;2023-04-15T10:28:03;8.40;99.90
77582;DHT22;66726;52.388;9.986;2023-04-15T10:30:37;8.50;99.90
77582;DHT22;66726;52.388;9.986;2023-04-15T10:33:12;8.50;99.90
77582;DHT22;66726;52.388;9.986;2023-04-15T10:35:49;8.50;99.90
77582;DHT22;66726;52.388;9.986;2023-04-15T10:38:38;8.50;99.90
77582;DHT22;66726;52.388;9.986;2023-04-15T10:41:13;8.50;99.90
77582;DHT22;66726;52.388;9.986;2023-04-15T10:43:50;8.60;99.90
77582;DHT22;66726;52.388;9.986;2023-04-15T10:46:28;8.60;99.90
77582;DHT22;66726;52.388;9.986;2023-04-15T10:49:09;8.60;99.90
77582;DHT22;66726;52.388;9.986;2023-04-15T10:51:46;8.60;99.90
77582;DHT22;66726;52.388;9.986;2023-04-15T10:54:33;8.70;99.90
77582;DHT22;66726;52.388;9.986;2023-04-15T10:57:13;8.80;99.90
77582;DHT22;66726;52.388;9.986;2023-04-15T11:00:01;8.80;99.90
77582;DHT22;66726;52.388;9.986;2023-04-15T11:02:44;8.90;99.90
77582;DHT22;66726;52.388;9.986;2023-04-15T11:05:21;8.80;99.90
77582;DHT22;66726;52.388;9.986;2023-04-15T11:08:12;8.80;99.90
77582;DHT22;66726;52.388;9.986;2023-04-15T11:10:55;8.80;99.90
77582;DHT22;66726;52.388;9.986;2023-04-15T11:13:30;8.90;99.90
77582;DHT22;66726;52.388;9.986;2023-04-15T11:16:04;8.90;99.90
77582;DHT22;66726;52.388;9.986;2023-04-15T11:18:35;8.90;99.90
77582;DHT22;66726;52.388;9.986;2023-04-15T11:21:08;8.90;99.90
77582;DHT22;66726;52.388;9.986;2023-04-15T11:23:41;8.90;99.90
77582;DHT22;66726;52.388;9.986;2023-04-15T11:26:16;9.00;99.90
77582;DHT22;66726;52.388;9.986;2023-04-15T11:28:48;9.00;99.90
77582;DHT22;66726;52.388;9.986;2023-04-15T11:31:20;9.00;99.90
77582;DHT22;66726;52.388;9.986;2023-04-15T11:33:57;9.10;99.90
77582;DHT22;66726;52.388;9.986;2023-04-15T11:36:30;9.10;99.90
77582;DHT22;66726;52.388;9.986;2023-04-15T11:39:03;9.10;99.90
77582;DHT22;66726;52.388;9.986;2023-04-15T11:41:39;9.10;99.90
77582;DHT22;66726;52.388;9.986;2023-04-15T11:44:17;9.10;99.90
77582;DHT22;66726;52.388;9.986;2023-04-15T11:46:50;9.10;99.90
77582;DHT22;66726;52.388;9.986;2023-04-15T11:49:25;9.20;99.90
77582;DHT22;66726;52.388;9.986;2023-04-15T11:52:01;9.10;99.90
77582;DHT22;66726;52.388;9.986;2023-04-15T11:54:40;9.20;99.90
77582;DHT22;66726;52.388;9.986;2023-04-15T11:57:14;9.20;99.90
77582;DHT22;66726;52.388;9.986;2023-04-15T11:59:46;9.20;99.90
77582;DHT22;66726;52.388;9.986;2023-04-15T12:02:18;9.20;99.90
77582;DHT22;66726;52.388;9.986;2023-04-15T12:05:02;9.20;99.90
77582;DHT22;66726;52.388;9.986;2023-04-15T12:07:34;9.20;99.90
77582;DHT22;66726;52.388;9.986;2023-04-15T12:10:30;9.20;99.90
77582;DHT22;66726;52.388;9.986;2023-04-15T12:13:07;9.30;99.90
77582;DHT22;66726;52.388;9.986;2023-04-15T12:15:42;9.30;99.90
77582;DHT22;66726;52.388;9.986;2023-04-15T12:18:19;9.30;99.90
77582;DHT22;66726;52.388;9.986;2023-04-15T12:20:53;9.30;99.90
77582;DHT22;66726;52.388;9.986;2023-04-15T12:23:27;9.30;99.90
77582;DHT22;66726;52.388;9.986;2023-04-15T12:25:59;9.30;99.90
77582;DHT22;66726;52.388;9.986;2023-04-15T12:28:37;9.30;99.90
77582;DHT22;66726;52.388;9.986;2023-04-15T12:31:12;9.30;99.90
77582;DHT22;66726;52.388;9.986;2023-04-15T12:33:48;9.40;99.90
77582;DHT22;66726;52.388;9.986;2023-04-15T12:36:20;9.40;99.90
77582;DHT22;66726;52.388;9.986;2023-04-15T12:38:52;9.40;99.90
77582;DHT22;66726;52.388;9.986;2023-04-15T12:41:24;9.50;99.90
77582;DHT22;66726;52.388;9.986;2023-04-15T12:43:57;9.50;99.90
77582;DHT22;66726;52.388;9.986;2023-04-15T12:46:29;9.50;99.90
77582;DHT22;66726;52.388;9.986;2023-04-15T12:49:02;9.60;99.90
77582;DHT22;66726;52.388;9.986;2023-04-15T12:51:34;9.60;99.90
77582;DHT22;66726;52.388;9.986;2023-04-15T12:54:06;9.60;99.90
77582;DHT22;66726;52.388;9.986;2023-04-15T12:56:38;9.60;99.90
77582;DHT22;66726;52.388;9.986;2023-04-15T12:59:11;9.70;99.90
77582;DHT22;66726;52.388;9.986;2023-04-15T13:01:43;9.70;99.90
77582;DHT22;66726;52.388;9.986;2023-04-15T13:04:18;9.70;99.90
77582;DHT22;66726;52.388;9.986;2023-04-15T13:06:50;9.70;99.90
77582;DHT22;66726;52.388;9.986;2023-04-15T13:09:22;9.80;99.90
77582;DHT22;66726;52.388;9.986;2023-04-15T13:11:54;9.80;99.90
77582;DHT22;66726;52.388;9.986;2023-04-15T13:14:28;9.80;99.90
77582;DHT22;66726;52.388;9.986;2023-04-15T13:17:00;9.90;99.90
77582;DHT22;66726;52.388;9.986;2023-04-15T13:19:37;9.90;99.90
77582;DHT22;66726;52.388;9.986;2023-04-15T13:22:10;9.90;99.90
77582;DHT22;66726;52.388;9.986;2023-04-15T13:24:42;10.00;99.90
77582;DHT22;66726;52.388;9.986;2023-04-15T13:27:14;10.10;99.90
77582;DHT22;66726;52.388;9.986;2023-04-15T13:29:47;10.30;99.90
77582;DHT22;66726;52.388;9.986;2023-04-15T13:32:19;10.40;99.90
77582;DHT22;66726;52.388;9.986;2023-04-15T13:34:51;10.50;99.90
77582;DHT22;66726;52.388;9.986;2023-04-15T13:37:28;10.60;99.90
77582;DHT22;66726;52.388;9.986;2023-04-15T13:40:00;10.70;99.90
77582;DHT22;66726;52.388;9.986;2023-04-15T13:42:32;10.80;99.90
77582;DHT22;66726;52.388;9.986;2023-04-15T13:45:08;10.80;99.90
77582;DHT22;66726;52.388;9.986;2023-04-15T13:47:41;10.80;99.90
77582;DHT22;66726;52.388;9.986;2023-04-15T13:50:13;10.80;99.90
77582;DHT22;66726;52.388;9.986;2023-04-15T13:52:45;10.80;99.90
77582;DHT22;66726;52.388;9.986;2023-04-15T13:55:16;10.80;99.90
77582;DHT22;66726;52.388;9.986;2023-04-15T13:57:53;10.80;99.90
77582;DHT22;66726;52.388;9.986;2023-04-15T14:00:26;10.90;99.90
77582;DHT22;66726;52.388;9.986;2023-04-15T14:02:58;11.00;99.90
77582;DHT22;66726;52.388;9.986;2023-04-15T14:05:30;11.20;99.90
77582;DHT22;66726;52.388;9.986;2023-04-15T14:08:04;11.40;99.90
77582;DHT22;66726;52.388;9.986;2023-04-15T14:10:36;11.50;99.90
77582;DHT22;66726;52.388;9.986;2023-04-15T14:13:11;11.50;99.90
77582;DHT22;66726;52.388;9.986;2023-04-15T14:15:45;11.50;99.90
77582;DHT22;66726;52.388;9.986;2023-04-15T14:18:18;11.50;99.90
77582;DHT22;66726;52.388;9.986;2023-04-15T14:20:49;11.50;99.90
77582;DHT22;66726;52.388;9.986;2023-04-15T14:23:21;11.50;99.90
77582;DHT22;66726;52.388;9.986;2023-04-15T14:25:54;11.50;99.90
77582;DHT22;66726;52.388;9.986;2023-04-15T14:28:26;11.50;99.90
77582;DHT22;66726;52.388;9.986;2023-04-15T14:30:59;11.50;99.90
77582;DHT22;66726;52.388;9.986;2023-04-15T14:33:32;11.40;99.90
77582;DHT22;66726;52.388;9.986;2023-04-15T14:36:05;11.50;99.90
77582;DHT22;66726;52.388;9.986;2023-04-15T14:38:40;11.60;99.90
77582;DHT22;66726;52.388;9.986;2023-04-15T14:41:16;11.70;99.90
77582;DHT22;66726;52.388;9.986;2023-04-15T14:43:47;11.80;99.90
77582;DHT22;66726;52.388;9.986;2023-04-15T14:46:20;11.90;99.90
77582;DHT22;66726;52.388;9.986;2023-04-15T14:48:53;11.90;99.90
77582;DHT22;66726;52.388;9.986;2023-04-15T14:51:25;11.80;99.90
77582;DHT22;66726;52.388;9.986;2023-04-15T14:53:58;11.80;99.90
77582;DHT22;66726;52.388;9.986;2023-04-15T14:56:32;11.80;99.90
77582;DHT22;66726;52.388;9.986;2023-04-15T14:59:04;11.80;99.90
77582;DHT22;66726;52.388;9.986;2023-04-15T15:01:37;11.80;99.90
77582;DHT22;66726;52.388;9.986;2023-04-15T15:04:10;11.80;99.90
77582;DHT22;66726;52.388;9.986;2023-04-15T15:06:44;11.80;99.90
77582;DHT22;66726;52.388;9.986;2023-04-15T15:09:16;11.90;99.90
77582;DHT22;66726;52.388;9.986;2023-04-15T15:11:51;11.90;99.90
77582;DHT22;66726;52.388;9.986;2023-04-15T15:14:24;12.00;99.90
77582;DHT22;66726;52.388;9.986;2023-04-15T15:16:57;12.00;99.90
77582;DHT22;66726;52.388;9.986;2023-04-15T15:19:29;12.00;99.90
77582;DHT22;66726;52.388;9.986;2023-04-15T15:22:01;12.00;99.90
77582;DHT22;66726;52.388;9.986;2023-04-15T15:24:34;12.00;99.90
77582;DHT22;66726;52.388;9.986;2023-04-15T15:27:06;12.00;99.90
77582;DHT22;66726;52.388;9.986;2023-04-15T15:29:38;12.00;99.90
77582;DHT22;66726;52.388;9.986;2023-04-15T15:32:11;12.10;99.90
77582;DHT22;66726;52.388;9.986;2023-04-15T15:34:43;12.10;99.90
77582;DHT22;66726;52.388;9.986;2023-04-15T15:37:15;12.10;99.90
77582;DHT22;66726;52.388;9.986;2023-04-15T15:39:47;12.10;99.90
77582;DHT22;66726;52.388;9.986;2023-04-15T15:42:20;12.20;99.90
77582;DHT22;66726;52.388;9.986;2023-04-15T15:44:52;12.40;99.90
77582;DHT22;66726;52.388;9.986;2023-04-15T15:47:25;12.60;99.90
77582;DHT22;66726;52.388;9.986;2023-04-15T15:49:57;12.70;99.90
77582;DHT22;66726;52.388;9.986;2023-04-15T15:52:33;12.70;99.90
77582;DHT22;66726;52.388;9.986;2023-04-15T15:55:05;12.80;99.90
77582;DHT22;66726;52.388;9.986;2023-04-15T15:57:40;12.80;99.90
77582;DHT22;66726;52.388;9.986;2023-04-15T16:00:18;12.70;99.90
77582;DHT22;66726;52.388;9.986;2023-04-15T16:02:56;12.70;99.90
77582;DHT22;66726;52.388;9.986;2023-04-15T16:05:30;12.60;99.90
77582;DHT22;66726;52.388;9.986;2023-04-15T16:08:04;12.50;99.90
77582;DHT22;66726;52.388;9.986;2023-04-15T16:10:36;12.50;99.90
77582;DHT22;66726;52.388;9.986;2023-04-15T16:13:10;12.50;99.90
77582;DHT22;66726;52.388;9.986;2023-04-15T16:15:42;12.50;99.90
77582;DHT22;66726;52.388;9.986;2023-04-15T16:18:15;12.40;99.90
77582;DHT22;66726;52.388;9.986;2023-04-15T16:20:47;12.40;99.90
77582;DHT22;66726;52.388;9.986;2023-04-15T16:23:18;12.40;99.90